PST: 19:40 MST: 20:40 CST: 21:40 EST: 22:40 LDN: 03:40 UTC: 03:40
User Agent: CCBot/2.0 (https://commoncrawl.org/faq/)
IP Address: 3.82.52.91
Hostname: ec2-3-82-52-91.compute-1.amazonaws.com

METAR:
KBFI 170253Z 00000KT 9SM -RA BKN006 OVC014 04/03 A2989 RMK AO2 SLP120 P0007 60012 T00440033 53012
KBFI 170231Z 30004KT 4SM RA BR BKN006 OVC014 04/03 A2988 RMK AO2 P0005 T00440033
KBFI 170153Z 15005KT 9SM -RA BKN014 OVC031 04/03 A2987 RMK AO2 RAB07 SLP113 P0004 T00440028
KBFI 170131Z 00000KT 6SM -RA BKN014 OVC031 06/02 A2986 RMK AO2 RAB07 P0002 T00560022
KBFI 170053Z 15003KT 10SM SCT012 BKN020 OVC031 06/03 A2986 RMK AO2 RAE44 SLP110 P0001 T00560028
KBFI 162353Z 00000KT 7SM -RA FEW008 BKN020 OVC035 06/03 A2985 RMK AO2 RAB2255 SLP108 P0001 60005 T00610028 10067 20039 55001

TAF:
KBFI 162344Z 1700/1724 13005KT P6SM -SHRA SCT020 OVC035 TEMPO 1700/1703 4SM -RA BR OVC008
FM 170600 15003KT P6SM BKN030 OVC040
FM 171000 15003KT P6SM BKN010 OVC030
FM 171400 00000KT P6SM OVC015
FM 171700 VRB03KT P6SM BKN025 OVC035
FM 172100 33006KT P6SM SCT035 BKN040

KBFI 161904Z 1619/1718 14007KT 3SM -RA BR OVC007
FM 162100 16006KT 5SM -SHRA BR BKN010 OVC035
FM 162300 17005KT P6SM -SHRA OVC020
FM 170200 18004KT P6SM -SHRA OVC025
FM 170700 15003KT P6SM BKN030 OVC040
FM 171400 00000KT P6SM BKN020

KBFI 161755Z 1618/1718 15004KT P6SM -RA BKN010 OVC035
FM 162100 17005KT P6SM -SHRA OVC020
FM 170200 18004KT P6SM -SHRA OVC025
FM 170700 15003KT P6SM BKN030 OVC040
FM 171400 00000KT P6SM BKN020

KBFI 161547Z 1616/1712 00000KT P6SM VCSH BKN012 OVC060 TEMPO 1616/1618 5SM -SHRA BR OVC010
FM 161800 17004KT P6SM -SHRA OVC030
FM 162100 17005KT P6SM -RA OVC025
FM 170200 18004KT P6SM -SHRA OVC025
FM 170700 15003KT P6SM BKN030 OVC040

KBFI 161137Z 1612/1712 00000KT P6SM OVC070
FM 161800 17004KT P6SM -SHRA OVC030
FM 162100 17005KT P6SM -RA OVC025
FM 170200 18004KT P6SM -SHRA OVC025
FM 170700 15003KT P6SM BKN030 OVC040

KBFI 160548Z 1606/1706 18006KT P6SM BKN060 BKN100
FM 160900 VRB04KT P6SM OVC050
FM 161500 15003KT P6SM OVC030
FM 162100 17005KT P6SM VCSH OVC030

KBFI 152320Z 1600/1624 18006KT P6SM SCT025 BKN100
FM 160800 VRB04KT P6SM OVC050
FM 161500 15003KT P6SM OVC030
FM 162100 17005KT P6SM VCSH OVC030